Time;durP1;ratioP1;P1;durP2;ratioP2;P2;SDS_P1;SDS_P2;PMS_P1;PMS_P2;Temp;Humidity;BMP_temperature;BMP_pressure;BME280_temperature;BME280_humidity;BME280_pressure;Samples;Min_cycle;Max_cycle;Signal;HPM_P1;HPM_P2
2023/06/20 00:02:21;;;;;;;9.13;6.47;;;22.10;99.90;;;;;;5038726;28;20225;-60
2023/06/20 00:04:47;;;;;;;7.90;7.10;;;22.00;99.90;;;;;;5039655;28;20181;-61
2023/06/20 00:07:13;;;;;;;7.60;6.83;;;22.00;99.90;;;;;;5039916;28;20215;-60
2023/06/20 00:09:38;;;;;;;6.73;6.13;;;22.00;99.90;;;;;;5040125;28;20196;-58
2023/06/20 00:12:05;;;;;;;8.97;6.57;;;22.00;99.90;;;;;;5039934;28;20226;-60
2023/06/20 00:14:31;;;;;;;10.43;6.93;;;22.00;99.90;;;;;;5057518;28;20165;-61
2023/06/20 00:16:59;;;;;;;7.77;6.70;;;21.90;99.90;;;;;;5073291;28;20165;-60
2023/06/20 00:19:25;;;;;;;9.13;7.40;;;21.90;99.90;;;;;;5039735;28;20376;-61
2023/06/20 00:21:51;;;;;;;10.93;6.53;;;21.90;99.90;;;;;;5038878;28;20185;-60
2023/06/20 00:24:16;;;;;;;10.60;7.30;;;21.80;99.90;;;;;;5039324;28;20174;-61
2023/06/20 00:26:42;;;;;;;7.67;6.87;;;21.80;99.90;;;;;;5057468;28;20150;-61
2023/06/20 00:29:07;;;;;;;8.30;6.87;;;21.80;99.90;;;;;;5039799;28;20268;-60
2023/06/20 00:31:33;;;;;;;8.50;7.57;;;21.70;99.90;;;;;;5039342;28;20189;-60
2023/06/20 00:33:58;;;;;;;8.03;6.80;;;21.70;99.90;;;;;;5057072;28;20181;-61
2023/06/20 00:36:27;;;;;;;7.90;7.10;;;21.70;99.90;;;;;;5039424;28;20169;-60
2023/06/20 00:38:56;;;;;;;8.40;7.33;;;21.70;99.90;;;;;;5039392;28;20204;-60
2023/06/20 00:41:22;;;;;;;10.43;7.83;;;21.60;99.90;;;;;;5072556;28;20595;-60
2023/06/20 00:43:48;;;;;;;7.17;6.57;;;21.60;99.90;;;;;;5039951;28;20234;-60
2023/06/20 00:46:17;;;;;;;8.67;7.33;;;21.60;99.90;;;;;;5056444;28;20193;-61
2023/06/20 00:48:43;;;;;;;10.70;7.57;;;21.60;99.90;;;;;;5056360;28;20224;-60
2023/06/20 00:51:09;;;;;;;8.37;7.43;;;21.60;99.90;;;;;;5039020;28;20169;-61
2023/06/20 00:53:35;;;;;;;10.37;7.60;;;21.50;99.90;;;;;;5038960;28;20814;-59
2023/06/20 00:56:00;;;;;;;9.57;7.50;;;21.50;99.90;;;;;;5037848;28;20223;-60
2023/06/20 00:58:26;;;;;;;8.10;7.30;;;21.50;99.90;;;;;;5038703;28;20165;-59
2023/06/20 01:00:51;;;;;;;8.60;7.40;;;21.50;99.90;;;;;;5055925;28;20177;-61
2023/06/20 01:03:18;;;;;;;8.47;7.27;;;21.50;99.90;;;;;;5035025;28;20233;-61
2023/06/20 01:05:52;;;;;;;7.73;6.63;;;21.40;99.90;;;;;;5036401;28;20272;-60
2023/06/20 01:08:39;;;;;;;9.93;7.23;;;21.50;99.90;;;;;;5034900;28;20236;-58
2023/06/20 01:11:18;;;;;;;9.50;7.10;;;21.40;99.90;;;;;;5036568;28;20239;-60
2023/06/20 01:14:11;;;;;;;8.53;7.23;;;21.40;99.90;;;;;;5035425;28;20172;-61
2023/06/20 01:16:47;;;;;;;8.63;7.80;;;21.30;99.90;;;;;;5036997;28;20159;-60
2023/06/20 01:19:50;;;;;;;8.47;7.53;;;21.30;99.90;;;;;;5036735;28;20170;-61
2023/06/20 01:22:33;;;;;;;9.70;7.10;;;21.20;99.90;;;;;;4995169;28;20204;-60
2023/06/20 01:25:04;;;;;;;7.90;7.10;;;21.20;99.90;;;;;;5036587;28;20155;-60
2023/06/20 01:27:42;;;;;;;7.93;7.13;;;21.20;99.90;;;;;;5036030;28;20197;-58
2023/06/20 01:30:22;;;;;;;9.30;7.60;;;21.10;99.90;;;;;;5036943;28;20170;-61
2023/06/20 01:32:54;;;;;;;7.57;6.80;;;21.10;99.90;;;;;;5036771;28;20170;-60
2023/06/20 01:35:23;;;;;;;11.60;7.40;;;21.10;99.90;;;;;;5036735;28;20169;-61
2023/06/20 01:37:55;;;;;;;8.47;7.50;;;21.00;99.90;;;;;;5037066;28;20166;-60
2023/06/20 01:40:23;;;;;;;7.70;7.00;;;21.00;99.90;;;;;;5035436;28;20177;-58
2023/06/20 01:42:52;;;;;;;8.67;7.77;;;20.90;99.90;;;;;;5036132;28;20749;-60
2023/06/20 01:45:38;;;;;;;8.37;7.50;;;20.90;99.90;;;;;;5036001;28;20181;-60
2023/06/20 01:48:06;;;;;;;8.30;7.00;;;20.90;99.90;;;;;;5036115;28;20197;-62
2023/06/20 01:50:33;;;;;;;8.00;7.20;;;20.80;99.90;;;;;;5037375;28;20223;-60
2023/06/20 01:53:00;;;;;;;9.33;7.90;;;20.80;99.90;;;;;;5039105;28;20178;-60
2023/06/20 01:55:28;;;;;;;8.10;7.40;;;20.80;99.90;;;;;;5039320;28;20216;-60
2023/06/20 01:57:57;;;;;;;10.10;8.20;;;20.80;99.90;;;;;;5040220;28;20170;-60
2023/06/20 02:00:26;;;;;;;8.40;7.23;;;20.70;99.90;;;;;;5039829;28;20177;-62
2023/06/20 02:02:55;;;;;;;8.30;7.00;;;20.70;99.90;;;;;;5039355;28;20538;-60
2023/06/20 02:05:22;;;;;;;7.97;7.17;;;20.60;99.90;;;;;;5039300;28;20351;-60
2023/06/20 02:07:49;;;;;;;11.63;7.57;;;20.60;99.90;;;;;;5039645;28;20209;-61
2023/06/20 02:10:15;;;;;;;8.77;7.73;;;20.60;99.90;;;;;;5039232;28;20162;-60
2023/06/20 02:12:43;;;;;;;8.87;8.00;;;20.60;99.90;;;;;;5038697;28;20263;-60
2023/06/20 02:15:10;;;;;;;10.60;8.13;;;20.60;99.90;;;;;;5038943;28;20429;-61
2023/06/20 02:17:38;;;;;;;7.67;6.97;;;20.60;99.90;;;;;;5039590;28;20519;-59
2023/06/20 02:20:04;;;;;;;8.73;7.87;;;20.60;99.90;;;;;;5038695;28;20260;-59
2023/06/20 02:22:31;;;;;;;9.80;8.53;;;20.60;99.90;;;;;;5038254;28;20265;-60
2023/06/20 02:25:03;;;;;;;11.20;8.07;;;20.50;99.90;;;;;;5037898;28;20336;-60
2023/06/20 02:27:30;;;;;;;8.03;7.33;;;20.50;99.90;;;;;;5038476;28;20615;-61
2023/06/20 02:29:58;;;;;;;9.10;7.53;;;20.50;99.90;;;;;;5038562;28;20180;-58
2023/06/20 02:32:24;;;;;;;10.47;7.77;;;20.40;99.90;;;;;;5038148;28;20190;-60
2023/06/20 02:34:53;;;;;;;9.20;8.03;;;20.40;99.90;;;;;;5038997;28;20200;-60
2023/06/20 02:37:19;;;;;;;9.60;8.60;;;20.40;99.90;;;;;;5038942;28;20510;-60
2023/06/20 02:39:44;;;;;;;9.97;8.87;;;20.40;99.90;;;;;;5039233;28;20257;-62
2023/06/20 02:42:10;;;;;;;10.50;8.00;;;20.30;99.90;;;;;;5038517;28;20212;-59
2023/06/20 02:44:35;;;;;;;9.47;8.00;;;20.30;99.90;;;;;;5037893;28;20177;-60
2023/06/20 02:47:25;;;;;;;9.77;8.73;;;20.30;99.90;;;;;;5038020;28;20177;-59
2023/06/20 02:50:12;;;;;;;8.83;7.87;;;20.30;99.90;;;;;;5038540;28;20643;-60
2023/06/20 02:52:51;;;;;;;8.60;7.73;;;20.20;99.90;;;;;;5037830;28;20335;-59
2023/06/20 02:55:39;;;;;;;10.00;8.50;;;20.20;99.90;;;;;;5038472;28;20267;-60
2023/06/20 02:58:14;;;;;;;10.43;8.33;;;20.20;99.90;;;;;;5039404;28;20163;-60
2023/06/20 03:00:49;;;;;;;10.07;8.67;;;20.20;99.90;;;;;;5038251;28;20177;-60
2023/06/20 03:03:17;;;;;;;10.37;8.43;;;20.20;99.90;;;;;;5037739;28;20619;-59
2023/06/20 03:05:44;;;;;;;10.47;8.53;;;20.10;99.90;;;;;;5037852;28;20170;-60
2023/06/20 03:08:16;;;;;;;10.80;8.70;;;20.10;99.90;;;;;;5037781;28;20363;-59
2023/06/20 03:10:43;;;;;;;10.87;8.80;;;20.10;99.90;;;;;;5037998;28;20158;-59
2023/06/20 03:13:14;;;;;;;9.63;8.63;;;20.10;99.90;;;;;;5038917;28;20178;-60
2023/06/20 03:15:40;;;;;;;9.90;8.90;;;20.10;99.90;;;;;;5038689;28;20636;-60
2023/06/20 03:18:05;;;;;;;9.60;8.50;;;20.10;99.90;;;;;;5038020;28;20859;-60
2023/06/20 03:20:31;;;;;;;9.33;8.30;;;20.00;99.90;;;;;;5037647;28;20174;-60
2023/06/20 03:22:56;;;;;;;9.70;8.60;;;20.00;99.90;;;;;;5037697;28;20277;-60
2023/06/20 03:25:22;;;;;;;11.10;8.57;;;20.00;99.90;;;;;;5037633;28;20204;-61
2023/06/20 03:27:48;;;;;;;10.90;8.57;;;20.00;99.90;;;;;;5037214;28;20744;-61
2023/06/20 03:30:14;;;;;;;9.90;8.53;;;20.00;99.90;;;;;;5036206;28;20192;-60
2023/06/20 03:32:40;;;;;;;9.43;8.43;;;20.00;99.90;;;;;;5036185;28;20281;-61
2023/06/20 03:35:07;;;;;;;12.87;8.33;;;20.00;99.90;;;;;;5037002;28;20531;-60
2023/06/20 03:37:33;;;;;;;11.83;8.60;;;20.00;99.90;;;;;;5036716;28;20166;-60
2023/06/20 03:39:59;;;;;;;9.20;8.17;;;20.00;99.90;;;;;;5037013;28;20487;-60
2023/06/20 03:42:25;;;;;;;12.73;9.10;;;20.00;99.90;;;;;;5036092;28;20545;-60
2023/06/20 03:44:56;;;;;;;12.77;9.03;;;20.00;99.90;;;;;;5036575;28;20170;-60
2023/06/20 03:47:25;;;;;;;11.33;8.93;;;19.90;99.90;;;;;;5036977;28;20194;-60
2023/06/20 03:49:51;;;;;;;9.07;8.17;;;19.90;99.90;;;;;;5037247;28;20515;-60
2023/06/20 03:52:16;;;;;;;18.40;9.90;;;19.90;99.90;;;;;;5035503;28;20277;-61
2023/06/20 03:54:42;;;;;;;11.57;9.23;;;19.90;99.90;;;;;;5035673;28;20220;-60
2023/06/20 03:57:07;;;;;;;10.20;9.17;;;19.90;99.90;;;;;;5035729;28;20461;-60
2023/06/20 03:59:33;;;;;;;11.77;8.67;;;19.80;99.90;;;;;;5035354;28;20200;-60
2023/06/20 04:01:58;;;;;;;11.33;9.33;;;19.80;99.90;;;;;;5036321;28;20154;-60
2023/06/20 04:04:24;;;;;;;9.70;8.80;;;19.90;99.90;;;;;;5038970;28;20181;-60
2023/06/20 04:06:50;;;;;;;10.67;9.43;;;19.90;99.90;;;;;;5038513;28;20203;-59
2023/06/20 04:09:17;;;;;;;9.90;8.80;;;19.90;99.90;;;;;;5039058;28;20205;-57
2023/06/20 04:11:44;;;;;;;11.57;8.97;;;19.90;99.90;;;;;;5038899;28;20166;-60
2023/06/20 04:14:09;;;;;;;11.57;10.03;;;19.90;99.90;;;;;;5053889;28;20166;-62
2023/06/20 04:16:35;;;;;;;10.70;9.30;;;19.90;99.90;;;;;;5052839;28;20185;-60
2023/06/20 04:19:01;;;;;;;10.23;9.20;;;19.90;99.90;;;;;;5035953;28;20180;-60
2023/06/20 04:21:31;;;;;;;9.60;8.60;;;19.90;99.90;;;;;;5034087;28;20177;-60
2023/06/20 04:23:57;;;;;;;10.70;9.60;;;19.90;99.90;;;;;;5051168;28;20343;-61
2023/06/20 04:26:23;;;;;;;11.60;8.97;;;19.90;99.90;;;;;;5067861;28;20173;-60
2023/06/20 04:28:49;;;;;;;9.30;8.40;;;19.90;99.90;;;;;;5035134;28;20206;-61
2023/06/20 04:31:14;;;;;;;11.97;9.13;;;19.90;99.90;;;;;;5037238;28;20177;-61
2023/06/20 04:33:45;;;;;;;11.93;8.90;;;19.90;99.90;;;;;;5037371;28;20165;-61
2023/06/20 04:36:13;;;;;;;11.60;8.70;;;19.90;99.90;;;;;;5069840;28;20165;-61
2023/06/20 04:38:42;;;;;;;9.53;7.77;;;19.90;99.90;;;;;;5036784;28;20272;-60
2023/06/20 04:41:08;;;;;;;10.03;7.83;;;19.90;99.90;;;;;;5054159;28;20170;-61
2023/06/20 04:43:35;;;;;;;8.43;7.03;;;19.90;99.90;;;;;;5035869;28;20673;-61
2023/06/20 04:46:00;;;;;;;8.73;7.83;;;19.90;99.90;;;;;;5036401;28;20580;-62
2023/06/20 04:48:30;;;;;;;10.00;7.90;;;19.90;99.90;;;;;;5035357;28;20197;-62
2023/06/20 04:50:56;;;;;;;7.93;7.13;;;19.90;99.90;;;;;;5029057;28;20177;-60
2023/06/20 04:53:28;;;;;;;7.00;6.27;;;19.90;99.90;;;;;;5027065;28;20188;-61
2023/06/20 04:55:55;;;;;;;8.20;7.40;;;20.00;99.90;;;;;;5043870;28;20267;-60
2023/06/20 04:58:20;;;;;;;9.03;6.80;;;20.00;99.90;;;;;;5028031;28;20184;-60
2023/06/20 05:00:46;;;;;;;7.00;6.30;;;19.90;99.90;;;;;;5028004;28;20323;-60
2023/06/20 05:03:11;;;;;;;7.37;6.67;;;20.00;99.90;;;;;;5043856;28;20240;-58
2023/06/20 05:05:39;;;;;;;9.50;7.37;;;20.00;99.90;;;;;;5025530;28;20366;-61
2023/06/20 05:08:05;;;;;;;9.70;6.50;;;20.00;99.90;;;;;;5027159;28;20337;-60
2023/06/20 05:10:30;;;;;;;6.87;6.00;;;20.10;99.90;;;;;;5027641;28;20173;-60
2023/06/20 05:12:56;;;;;;;6.73;5.77;;;20.10;99.90;;;;;;5028456;28;20210;-60
2023/06/20 05:15:24;;;;;;;5.90;5.30;;;20.00;99.90;;;;;;5030110;28;20217;-60
2023/06/20 05:17:51;;;;;;;7.20;6.50;;;20.10;99.90;;;;;;5030177;28;20621;-60
2023/06/20 05:20:16;;;;;;;7.80;5.50;;;20.10;99.90;;;;;;5031571;28;20169;-60
2023/06/20 05:22:42;;;;;;;5.57;5.07;;;20.10;99.90;;;;;;5036313;28;20291;-60
2023/06/20 05:25:07;;;;;;;7.13;5.40;;;20.10;99.90;;;;;;5070181;28;20180;-60
2023/06/20 05:27:33;;;;;;;6.20;5.60;;;20.10;99.90;;;;;;5057702;28;20208;-60
2023/06/20 05:29:59;;;;;;;6.17;5.47;;;20.10;99.90;;;;;;5039399;28;20252;-61
2023/06/20 05:32:25;;;;;;;6.37;5.27;;;20.10;99.90;;;;;;5056901;28;20161;-59
2023/06/20 05:34:50;;;;;;;5.10;4.60;;;20.10;99.90;;;;;;5055551;28;20584;-60
2023/06/20 05:37:16;;;;;;;5.80;5.03;;;20.20;99.90;;;;;;5036831;28;20609;-60
2023/06/20 05:39:41;;;;;;;5.13;4.63;;;20.10;99.90;;;;;;5037281;28;20600;-60
2023/06/20 05:42:07;;;;;;;6.40;4.40;;;20.20;99.90;;;;;;5038838;28;20802;-62
2023/06/20 05:44:33;;;;;;;4.80;3.90;;;20.20;99.90;;;;;;5036559;28;20180;-61
2023/06/20 05:46:58;;;;;;;5.50;3.90;;;20.20;99.90;;;;;;5055151;28;20486;-60
2023/06/20 05:49:24;;;;;;;5.40;4.40;;;20.30;99.90;;;;;;5038328;28;20656;-61
2023/06/20 05:51:49;;;;;;;4.97;4.53;;;20.30;99.90;;;;;;5054987;28;20168;-61
2023/06/20 05:54:15;;;;;;;5.23;3.90;;;20.20;99.90;;;;;;5036248;28;20197;-61
2023/06/20 05:56:40;;;;;;;4.97;4.40;;;20.30;99.90;;;;;;5035963;28;20426;-60
2023/06/20 05:59:06;;;;;;;4.50;4.00;;;20.30;99.90;;;;;;5068494;28;20204;-61
2023/06/20 06:01:31;;;;;;;6.57;4.60;;;20.40;99.90;;;;;;5033489;28;20693;-60
2023/06/20 06:03:57;;;;;;;4.37;3.97;;;20.40;99.90;;;;;;5033907;28;20251;-61
2023/06/20 06:06:24;;;;;;;4.53;4.13;;;20.40;99.90;;;;;;5034028;28;20235;-59
2023/06/20 06:08:50;;;;;;;4.80;4.30;;;20.40;99.90;;;;;;5033751;28;20577;-59
2023/06/20 06:11:16;;;;;;;5.10;4.33;;;20.40;99.90;;;;;;5033575;28;20277;-60
2023/06/20 06:13:41;;;;;;;5.53;3.70;;;20.40;99.90;;;;;;5032589;28;20272;-61
2023/06/20 06:16:10;;;;;;;3.87;3.53;;;20.40;99.90;;;;;;5034385;28;20642;-62
2023/06/20 06:18:36;;;;;;;3.63;3.33;;;20.40;99.90;;;;;;5035591;28;20189;-60
2023/06/20 06:21:01;;;;;;;4.10;3.70;;;20.50;99.90;;;;;;5033927;28;20191;-60
2023/06/20 06:23:27;;;;;;;3.57;3.23;;;20.50;99.90;;;;;;5033102;28;20177;-60
2023/06/20 06:25:52;;;;;;;4.40;4.00;;;20.50;99.90;;;;;;5034430;28;20169;-60
2023/06/20 06:28:18;;;;;;;4.53;3.70;;;20.50;99.90;;;;;;5052853;28;20229;-61
2023/06/20 06:30:44;;;;;;;3.53;3.23;;;20.60;99.90;;;;;;5036137;28;20235;-60
2023/06/20 06:33:11;;;;;;;3.73;3.33;;;20.60;99.90;;;;;;5035725;28;20192;-61
2023/06/20 06:35:38;;;;;;;3.90;3.43;;;20.60;99.90;;;;;;5067912;28;20243;-60
2023/06/20 06:38:04;;;;;;;4.03;3.63;;;20.60;99.90;;;;;;5034987;28;20178;-58
2023/06/20 06:40:31;;;;;;;3.40;3.10;;;20.60;99.90;;;;;;5066784;28;20225;-59
2023/06/20 06:42:56;;;;;;;4.53;3.27;;;20.60;99.90;;;;;;5034118;28;20178;-60
2023/06/20 06:45:23;;;;;;;3.23;2.93;;;20.70;99.90;;;;;;5034053;28;20169;-60
2023/06/20 06:47:50;;;;;;;4.63;3.30;;;20.70;99.90;;;;;;5049502;28;20213;-59
2023/06/20 06:50:16;;;;;;;4.10;3.80;;;20.70;99.90;;;;;;5035747;28;20169;-59
2023/06/20 06:52:42;;;;;;;5.60;4.03;;;20.70;99.90;;;;;;5035925;28;20224;-61
2023/06/20 06:55:08;;;;;;;4.30;3.90;;;20.70;99.90;;;;;;5036583;28;20176;-59
2023/06/20 06:57:35;;;;;;;5.97;4.27;;;20.80;99.90;;;;;;5033703;28;20182;-59
2023/06/20 07:00:09;;;;;;;4.63;3.53;;;20.80;99.90;;;;;;5032501;28;20177;-59
2023/06/20 07:02:47;;;;;;;4.03;3.10;;;20.80;99.90;;;;;;5046196;28;20233;-59
2023/06/20 07:05:14;;;;;;;5.60;3.87;;;20.90;99.90;;;;;;5028998;28;20173;-59
2023/06/20 07:07:40;;;;;;;3.73;3.33;;;20.90;99.90;;;;;;5027407;28;20651;-58
2023/06/20 07:10:09;;;;;;;4.93;3.57;;;20.90;99.90;;;;;;5027973;28;20235;-60
2023/06/20 07:12:36;;;;;;;3.73;3.33;;;21.00;99.90;;;;;;5030857;28;20169;-59
2023/06/20 07:15:11;;;;;;;4.23;3.83;;;21.00;99.90;;;;;;5027921;28;20208;-59
2023/06/20 07:17:38;;;;;;;4.43;3.57;;;21.00;99.90;;;;;;5029691;28;20575;-59
2023/06/20 07:20:08;;;;;;;4.37;3.63;;;21.00;99.90;;;;;;5046429;28;20182;-59
2023/06/20 07:22:35;;;;;;;6.80;3.87;;;21.00;99.90;;;;;;5027369;28;20418;-59
2023/06/20 07:25:02;;;;;;;4.17;3.17;;;21.00;99.90;;;;;;5030814;28;20173;-60
2023/06/20 07:27:28;;;;;;;4.03;3.47;;;21.10;99.90;;;;;;5028317;28;20225;-60
2023/06/20 07:29:53;;;;;;;3.83;3.37;;;21.10;99.90;;;;;;5045229;28;20212;-60
2023/06/20 07:32:19;;;;;;;3.73;3.10;;;21.10;99.90;;;;;;5028232;28;20257;-59
2023/06/20 07:34:46;;;;;;;3.60;3.30;;;21.10;99.90;;;;;;5027135;28;20203;-60
2023/06/20 07:37:11;;;;;;;3.77;3.40;;;21.20;99.90;;;;;;5030526;28;20216;-60
2023/06/20 07:39:43;;;;;;;3.90;3.50;;;21.20;99.90;;;;;;5031580;28;20760;-59
2023/06/20 07:42:09;;;;;;;4.27;3.87;;;21.20;99.90;;;;;;5048348;28;20475;-59
2023/06/20 07:44:35;;;;;;;3.57;3.27;;;21.30;99.90;;;;;;5032277;28;20165;-59
2023/06/20 07:47:02;;;;;;;4.77;3.83;;;21.30;99.90;;;;;;5047910;28;20448;-60
2023/06/20 07:49:31;;;;;;;5.10;3.63;;;21.30;99.90;;;;;;5032056;28;20173;-60
2023/06/20 07:51:58;;;;;;;4.60;3.60;;;21.30;99.90;;;;;;5030285;28;20165;-60
2023/06/20 07:54:25;;;;;;;4.10;3.70;;;21.40;99.90;;;;;;5029505;28;20183;-60
2023/06/20 07:56:51;;;;;;;4.03;3.33;;;21.40;99.90;;;;;;5046102;28;20216;-59
2023/06/20 07:59:16;;;;;;;4.30;3.90;;;21.40;99.90;;;;;;5028768;28;20196;-59
2023/06/20 08:01:43;;;;;;;3.70;3.40;;;21.50;99.90;;;;;;5046254;28;20196;-60
2023/06/20 08:04:09;;;;;;;4.23;3.60;;;21.50;99.90;;;;;;5045192;28;20229;-58
2023/06/20 08:06:36;;;;;;;4.10;3.70;;;21.60;99.90;;;;;;5045094;28;20166;-59
2023/06/20 08:09:03;;;;;;;5.83;4.00;;;21.60;99.90;;;;;;5025202;28;20197;-60
2023/06/20 08:11:29;;;;;;;3.83;3.50;;;21.60;99.90;;;;;;5027258;28;20401;-61
2023/06/20 08:13:56;;;;;;;4.17;3.77;;;21.70;99.90;;;;;;5041749;28;20655;-60
2023/06/20 08:16:21;;;;;;;4.10;3.70;;;21.70;99.90;;;;;;5062836;28;20165;-60
2023/06/20 08:18:47;;;;;;;4.63;3.60;;;21.70;99.90;;;;;;5029311;28;20176;-60
2023/06/20 08:21:13;;;;;;;6.70;5.40;;;21.80;99.90;;;;;;5044673;28;20197;-59
2023/06/20 08:23:39;;;;;;;4.70;4.30;;;21.80;99.90;;;;;;5044343;28;20235;-60
2023/06/20 08:26:05;;;;;;;5.57;3.90;;;21.90;99.90;;;;;;5025058;28;20667;-59
2023/06/20 08:28:30;;;;;;;4.77;4.20;;;21.90;99.90;;;;;;5029010;28;20284;-58
2023/06/20 08:30:56;;;;;;;4.27;3.87;;;22.00;99.90;;;;;;5046548;28;20165;-59
2023/06/20 08:33:21;;;;;;;4.63;4.20;;;22.10;99.90;;;;;;5043563;28;20184;-60
2023/06/20 08:35:47;;;;;;;6.20;4.43;;;22.10;99.90;;;;;;5028030;28;20264;-58
2023/06/20 08:38:13;;;;;;;5.97;3.67;;;22.10;99.90;;;;;;5028534;28;20173;-60
2023/06/20 08:40:40;;;;;;;4.17;3.77;;;22.20;99.90;;;;;;5030483;28;20187;-60
2023/06/20 08:43:06;;;;;;;5.57;4.00;;;22.20;99.90;;;;;;5049810;28;20638;-59
2023/06/20 08:45:32;;;;;;;5.33;4.43;;;22.30;99.90;;;;;;5030715;28;20169;-58
2023/06/20 08:47:58;;;;;;;4.63;3.70;;;22.40;99.90;;;;;;5048896;28;20463;-57
2023/06/20 08:50:25;;;;;;;4.03;3.63;;;22.40;99.90;;;;;;5033505;28;20177;-59
2023/06/20 08:52:54;;;;;;;5.27;4.00;;;22.40;99.90;;;;;;5066202;28;20165;-59
2023/06/20 08:55:24;;;;;;;4.53;3.77;;;22.40;99.90;;;;;;5050146;28;20631;-58
2023/06/20 08:57:51;;;;;;;4.87;3.97;;;22.50;99.90;;;;;;5033153;28;20178;-59
2023/06/20 09:00:21;;;;;;;4.40;4.00;;;22.50;99.90;;;;;;5031016;28;20177;-58
2023/06/20 09:02:48;;;;;;;3.97;3.67;;;22.50;99.90;;;;;;5049963;28;20251;-59
2023/06/20 09:05:14;;;;;;;4.40;4.00;;;22.50;99.90;;;;;;5048970;28;20560;-59
2023/06/20 09:07:41;;;;;;;4.63;4.17;;;22.50;99.90;;;;;;5048373;28;20350;-58
2023/06/20 09:10:18;;;;;;;7.47;4.30;;;22.60;99.90;;;;;;5048158;28;20177;-58
2023/06/20 09:12:49;;;;;;;4.73;4.33;;;22.60;99.90;;;;;;5042870;28;20268;-58
2023/06/20 09:15:34;;;;;;;5.33;4.13;;;22.70;99.90;;;;;;5045246;28;20166;-61
2023/06/20 09:18:01;;;;;;;6.00;4.40;;;22.70;99.90;;;;;;5042754;28;20185;-58
2023/06/20 09:20:29;;;;;;;4.30;3.73;;;22.70;99.90;;;;;;5045744;28;20178;-57
2023/06/20 09:22:57;;;;;;;4.27;3.87;;;22.70;99.90;;;;;;5029528;28;20180;-58
2023/06/20 09:25:25;;;;;;;4.87;3.70;;;22.70;99.90;;;;;;5046348;28;20181;-59
2023/06/20 09:27:52;;;;;;;4.60;4.03;;;22.70;99.90;;;;;;5048500;28;20197;-59
2023/06/20 09:30:19;;;;;;;5.30;4.20;;;22.80;99.90;;;;;;5049908;28;20235;-59
2023/06/20 09:32:46;;;;;;;6.80;4.47;;;22.80;99.90;;;;;;5045776;28;20736;-58
2023/06/20 09:35:15;;;;;;;5.23;4.33;;;22.90;99.90;;;;;;5047285;28;20161;-58
2023/06/20 09:37:49;;;;;;;4.33;4.03;;;22.90;99.90;;;;;;5049633;28;20253;-59
2023/06/20 09:40:18;;;;;;;3.67;3.37;;;23.00;99.90;;;;;;5050712;28;20229;-59
2023/06/20 09:42:45;;;;;;;5.40;3.87;;;23.00;99.90;;;;;;5032089;28;20630;-59
2023/06/20 09:45:12;;;;;;;3.40;3.10;;;23.10;99.90;;;;;;5047867;28;20173;-58
2023/06/20 09:47:39;;;;;;;5.17;3.93;;;23.10;99.90;;;;;;5048448;28;20197;-59
2023/06/20 09:50:13;;;;;;;6.27;3.83;;;23.20;99.90;;;;;;5050106;28;20168;-59
2023/06/20 09:53:00;;;;;;;4.67;3.83;;;23.20;99.90;;;;;;5052020;28;20239;-59
2023/06/20 09:55:26;;;;;;;4.47;4.07;;;23.30;99.90;;;;;;5053222;28;20173;-59
2023/06/20 09:57:58;;;;;;;5.20;3.77;;;23.30;99.90;;;;;;5052913;28;20166;-60
2023/06/20 10:00:29;;;;;;;5.40;4.47;;;23.40;99.90;;;;;;5051087;28;20757;-59
2023/06/20 10:02:59;;;;;;;7.23;4.77;;;23.50;99.90;;;;;;5050159;28;20372;-59
2023/06/20 10:05:27;;;;;;;4.67;4.13;;;23.50;99.90;;;;;;5049654;28;20260;-59
2023/06/20 10:07:57;;;;;;;6.93;4.50;;;23.60;99.90;;;;;;5050199;28;20197;-59
2023/06/20 10:10:24;;;;;;;6.13;4.77;;;23.70;99.90;;;;;;5049327;28;20196;-60
2023/06/20 10:12:53;;;;;;;5.43;4.93;;;23.70;99.90;;;;;;5053581;28;20162;-59
2023/06/20 10:15:21;;;;;;;5.73;5.13;;;23.70;99.90;;;;;;5053950;28;20605;-58
2023/06/20 10:17:47;;;;;;;7.20;4.90;;;23.80;99.90;;;;;;5054293;28;20954;-59
2023/06/20 10:20:37;;;;;;;6.83;4.43;;;23.80;99.90;;;;;;5053755;28;20180;-59
2023/06/20 10:23:10;;;;;;;4.67;4.27;;;23.90;99.90;;;;;;5053106;28;20640;-59
2023/06/20 10:25:58;;;;;;;5.50;4.97;;;23.90;99.90;;;;;;5055894;28;20178;-58
2023/06/20 10:28:25;;;;;;;5.50;5.00;;;24.00;99.90;;;;;;5071879;28;20650;-60
2023/06/20 10:30:58;;;;;;;5.00;4.60;;;24.00;99.90;;;;;;5056984;28;20189;-60
2023/06/20 10:33:27;;;;;;;5.53;4.90;;;24.00;99.90;;;;;;5056834;28;20180;-59
2023/06/20 10:36:11;;;;;;;4.90;4.43;;;24.10;99.90;;;;;;5055987;28;20197;-60
2023/06/20 10:39:01;;;;;;;4.70;4.30;;;24.10;99.90;;;;;;5054592;28;20232;-60
2023/06/20 10:41:28;;;;;;;7.23;4.97;;;24.10;99.90;;;;;;5052478;28;20192;-59
2023/06/20 10:43:54;;;;;;;7.57;5.40;;;24.10;99.90;;;;;;5053391;28;20176;-60
2023/06/20 10:46:28;;;;;;;7.23;5.70;;;24.10;99.90;;;;;;5051633;28;20180;-59
2023/06/20 10:48:55;;;;;;;5.87;5.17;;;24.10;99.90;;;;;;5053475;28;20208;-58
2023/06/20 10:51:22;;;;;;;5.83;5.23;;;24.10;99.90;;;;;;5054470;28;20165;-60
2023/06/20 10:53:49;;;;;;;6.17;4.90;;;24.10;99.90;;;;;;5055092;28;20222;-60
2023/06/20 10:56:50;;;;;;;5.10;4.60;;;24.10;99.90;;;;;;5054614;28;20166;-60
2023/06/20 10:59:17;;;;;;;6.47;5.00;;;24.20;99.90;;;;;;5054157;28;20482;-59
2023/06/20 11:01:49;;;;;;;5.23;4.80;;;24.20;99.90;;;;;;5053759;28;20196;-60
2023/06/20 11:04:16;;;;;;;5.47;4.97;;;24.20;99.90;;;;;;5054363;28;20229;-60
2023/06/20 11:06:42;;;;;;;5.27;4.57;;;24.20;99.90;;;;;;5055839;28;20185;-60
2023/06/20 11:09:23;;;;;;;5.40;4.90;;;24.20;99.90;;;;;;5052852;28;20204;-58
2023/06/20 11:11:49;;;;;;;6.20;5.13;;;24.30;99.90;;;;;;5054396;28;20177;-59
2023/06/20 11:14:19;;;;;;;6.17;4.97;;;24.30;99.90;;;;;;5053699;28;20177;-60
2023/06/20 11:16:50;;;;;;;4.83;4.30;;;24.30;99.90;;;;;;5051217;28;20457;-58
2023/06/20 11:19:21;;;;;;;4.67;4.27;;;24.40;99.90;;;;;;5050992;28;20218;-60
2023/06/20 11:21:51;;;;;;;6.07;5.20;;;24.40;99.90;;;;;;5049473;28;20165;-59
2023/06/20 11:24:20;;;;;;;6.10;4.77;;;24.40;99.90;;;;;;5049211;28;20173;-60
2023/06/20 11:26:46;;;;;;;4.33;3.83;;;24.50;99.90;;;;;;5048624;28;20192;-59
2023/06/20 11:29:13;;;;;;;5.87;5.37;;;24.50;99.90;;;;;;5046769;28;20771;-60
2023/06/20 11:31:38;;;;;;;5.30;4.80;;;24.50;99.90;;;;;;5049516;28;20177;-60
2023/06/20 11:34:12;;;;;;;6.37;5.73;;;24.50;99.90;;;;;;5051668;28;20177;-60
2023/06/20 11:36:40;;;;;;;4.97;4.50;;;24.60;99.90;;;;;;5049088;28;20181;-58
2023/06/20 11:39:07;;;;;;;6.28;4.55;;;24.70;99.90;;;;;;5048610;28;20173;-59
2023/06/20 11:41:40;;;;;;;5.57;5.03;;;24.70;99.90;;;;;;5048322;28;20170;-60
2023/06/20 11:44:24;;;;;;;5.20;4.60;;;24.80;99.90;;;;;;5051467;28;20439;-60
2023/06/20 11:46:59;;;;;;;4.50;4.10;;;24.80;99.90;;;;;;5050611;28;20247;-58
2023/06/20 11:49:32;;;;;;;5.83;5.23;;;24.90;99.90;;;;;;5049568;28;20202;-60
2023/06/20 11:52:02;;;;;;;4.47;4.07;;;25.00;99.90;;;;;;5049269;28;20172;-59
2023/06/20 11:54:27;;;;;;;6.22;4.70;;;25.00;99.90;;;;;;5045677;28;20169;-58
2023/06/20 11:56:54;;;;;;;4.97;4.57;;;25.10;99.90;;;;;;5045315;28;20196;-60
2023/06/20 11:59:25;;;;;;;5.20;4.80;;;25.10;99.90;;;;;;5045570;28;20188;-59
2023/06/20 12:01:52;;;;;;;6.00;4.95;;;25.20;99.90;;;;;;5042207;28;20576;-60
2023/06/20 12:04:19;;;;;;;4.53;4.15;;;25.30;99.90;;;;;;5051925;28;20332;-60
2023/06/20 12:06:52;;;;;;;5.17;4.77;;;25.30;99.90;;;;;;5050336;28;20169;-60
2023/06/20 12:09:18;;;;;;;4.28;3.97;;;25.30;99.90;;;;;;5045615;28;20274;-59
2023/06/20 12:11:53;;;;;;;5.82;5.20;;;25.40;99.90;;;;;;5041710;28;20616;-59
2023/06/20 12:14:22;;;;;;;5.57;4.68;;;25.40;99.90;;;;;;5041176;28;20510;-59
2023/06/20 12:16:48;;;;;;;5.53;4.93;;;25.50;99.90;;;;;;5038885;28;20157;-59
2023/06/20 12:19:14;;;;;;;5.53;4.65;;;25.50;99.90;;;;;;5040334;28;20172;-60
2023/06/20 12:21:42;;;;;;;6.88;4.55;;;25.50;99.90;;;;;;5043028;28;20169;-60
2023/06/20 12:24:08;;;;;;;4.70;4.30;;;25.60;99.90;;;;;;5047322;28;20199;-59
2023/06/20 12:26:34;;;;;;;4.93;4.53;;;25.60;99.90;;;;;;5046943;28;20729;-60
2023/06/20 12:29:00;;;;;;;4.95;4.55;;;25.60;99.90;;;;;;5047205;28;20204;-59
2023/06/20 12:31:26;;;;;;;5.75;5.10;;;25.60;99.90;;;;;;5046608;28;20237;-59
2023/06/20 12:33:54;;;;;;;7.07;5.50;;;25.60;99.90;;;;;;5048320;28;20706;-59
2023/06/20 12:36:20;;;;;;;6.50;5.67;;;25.70;99.90;;;;;;5047625;28;20157;-60
2023/06/20 12:38:45;;;;;;;5.05;4.65;;;25.70;99.90;;;;;;5046520;28;20181;-59
2023/06/20 12:41:11;;;;;;;5.20;4.68;;;25.70;99.90;;;;;;5046527;28;20166;-59
2023/06/20 12:43:37;;;;;;;5.68;5.10;;;25.70;99.90;;;;;;5046322;28;20197;-59
2023/06/20 12:46:04;;;;;;;5.55;5.05;;;25.70;99.90;;;;;;5048570;28;20270;-59
2023/06/20 12:48:30;;;;;;;6.88;5.60;;;25.70;99.90;;;;;;5049310;28;20481;-60
2023/06/20 12:50:59;;;;;;;7.00;6.35;;;25.80;99.90;;;;;;5048858;28;20169;-60
2023/06/20 12:53:26;;;;;;;6.93;5.18;;;25.80;99.90;;;;;;5052113;28;20182;-60